createdAt,value
2016-10-31T00:00:23.195Z,18.83
2016-10-31T00:01:35.792Z,18.93
2016-10-31T00:02:46.941Z,18.75
2016-10-31T00:03:57.786Z,18.77
2016-10-31T00:05:08.389Z,18.73
2016-10-31T00:06:20.467Z,18.75
2016-10-31T00:07:30.938Z,18.8
2016-10-31T00:08:41.826Z,18.75
2016-10-31T00:09:52.217Z,18.73
2016-10-31T00:11:03.467Z,18.75
2016-10-31T00:12:15.568Z,18.77
2016-10-31T00:13:27.389Z,18.81
2016-10-31T00:14:38.543Z,18.73
2016-10-31T00:15:50.649Z,18.8
2016-10-31T00:17:01.138Z,18.75
2016-10-31T00:18:12.556Z,18.68
2016-10-31T00:19:24.024Z,18.77
2016-10-31T00:20:36.197Z,18.71
2016-10-31T00:21:47.747Z,18.73
2016-10-31T00:22:58.896Z,18.74
2016-10-31T00:24:10.305Z,18.74
2016-10-31T00:25:22.550Z,18.73
2016-10-31T00:26:33.374Z,18.74
2016-10-31T00:27:45.316Z,18.63
2016-10-31T00:28:57.146Z,18.75
2016-10-31T00:30:08.670Z,18.74
2016-10-31T00:31:20.902Z,18.74
2016-10-31T00:32:32.929Z,18.68
2016-10-31T00:33:44.397Z,18.75
2016-10-31T00:34:56.650Z,18.75
2016-10-31T00:36:08.711Z,18.63
2016-10-31T00:37:18.946Z,18.65
2016-10-31T00:38:30.552Z,18.65
2016-10-31T00:39:41.632Z,18.71
2016-10-31T00:40:53.570Z,18.75
2016-10-31T00:42:04.510Z,18.78
2016-10-31T00:43:17.203Z,18.75
2016-10-31T00:44:28.925Z,18.77
2016-10-31T00:45:41.815Z,18.75
2016-10-31T00:46:54.178Z,18.73
2016-10-31T00:48:05.098Z,18.71
2016-10-31T00:49:17.473Z,18.65
2016-10-31T00:50:28.582Z,18.68
2016-10-31T00:51:39.863Z,18.63
2016-10-31T00:52:50.839Z,18.53
2016-10-31T00:54:02.266Z,18.56
2016-10-31T00:55:13.806Z,18.63
2016-10-31T00:56:25.273Z,18.58
2016-10-31T00:57:36.710Z,18.52
2016-10-31T00:58:49.232Z,18.45
2016-10-31T01:00:01.000Z,18.44
2016-10-31T01:01:11.994Z,18.45
2016-10-31T01:02:24.145Z,18.38
2016-10-31T01:03:35.710Z,18.41
2016-10-31T01:04:46.910Z,18.38
2016-10-31T01:05:58.854Z,18.34
2016-10-31T01:07:10.907Z,18.4
2016-10-31T01:08:22.770Z,18.29
2016-10-31T01:09:33.313Z,18.25
2016-10-31T01:10:45.718Z,18.26
2016-10-31T01:11:57.964Z,18.26
2016-10-31T01:13:09.615Z,18.18
2016-10-31T01:14:20.469Z,18.2
2016-10-31T01:15:32.703Z,18.16
2016-10-31T01:16:43.313Z,18.13
2016-10-31T01:17:53.970Z,18.13
2016-10-31T01:19:05.747Z,17.98
2016-10-31T01:20:16.564Z,17.98
2016-10-31T01:21:28.839Z,18.03
2016-10-31T01:22:38.486Z,17.92
2016-10-31T01:23:50.371Z,17.97
2016-10-31T01:25:02.837Z,17.82
2016-10-31T01:26:14.263Z,17.92
2016-10-31T01:27:25.931Z,17.86
2016-10-31T01:28:38.495Z,17.79
2016-10-31T01:29:49.352Z,17.95
2016-10-31T01:31:00.694Z,17.9
2016-10-31T01:32:12.982Z,17.8
2016-10-31T01:33:25.760Z,17.85
2016-10-31T01:34:37.567Z,17.83
2016-10-31T01:35:47.761Z,17.87
2016-10-31T01:36:59.721Z,17.86
2016-10-31T01:38:12.568Z,17.86
2016-10-31T01:39:24.233Z,17.89
2016-10-31T01:40:36.559Z,17.74
2016-10-31T01:41:48.238Z,17.82
2016-10-31T01:42:58.769Z,17.86
2016-10-31T01:44:09.888Z,17.83
2016-10-31T01:45:21.738Z,17.92
2016-10-31T01:46:33.233Z,18
2016-10-31T01:47:45.959Z,18.03
2016-10-31T01:48:56.949Z,18.07
2016-10-31T01:50:09.290Z,18.08
2016-10-31T01:51:20.597Z,18.13
2016-10-31T01:52:32.621Z,18.08
2016-10-31T01:53:42.833Z,18.05
2016-10-31T01:54:54.414Z,18.04
2016-10-31T01:56:06.731Z,17.98
2016-10-31T01:57:18.316Z,17.94
2016-10-31T01:58:30.086Z,18
2016-10-31T01:59:40.667Z,17.97
2016-10-31T02:00:52.109Z,17.98
2016-10-31T02:02:02.635Z,18
2016-10-31T02:03:14.460Z,17.97
2016-10-31T02:04:25.803Z,17.94
2016-10-31T02:05:38.211Z,17.98
2016-10-31T02:06:48.384Z,18.05
2016-10-31T02:08:00.425Z,18.11
2016-10-31T02:09:11.980Z,18.15
2016-10-31T02:10:24.010Z,18.05
2016-10-31T02:11:34.067Z,18.07
2016-10-31T02:12:45.392Z,18.01
2016-10-31T02:13:56.570Z,17.92
2016-10-31T02:15:07.040Z,17.89
2016-10-31T02:16:17.549Z,17.92
2016-10-31T02:17:27.745Z,17.92
2016-10-31T02:18:38.902Z,17.97
2016-10-31T02:19:51.014Z,17.95
2016-10-31T02:21:03.344Z,17.87
2016-10-31T02:22:14.558Z,17.85
2016-10-31T02:23:25.386Z,17.9
2016-10-31T02:24:38.045Z,17.82
2016-10-31T02:25:48.850Z,17.83
2016-10-31T02:26:58.986Z,17.8
2016-10-31T02:28:10.486Z,17.8
2016-10-31T02:29:22.101Z,17.7
2016-10-31T02:30:34.215Z,17.7
2016-10-31T02:31:46.065Z,17.68
2016-10-31T02:32:56.994Z,17.65
2016-10-31T02:34:09.066Z,17.54
2016-10-31T02:35:21.052Z,17.57
2016-10-31T02:36:31.135Z,17.74
2016-10-31T02:37:42.634Z,17.8
2016-10-31T02:38:54.492Z,17.8
2016-10-31T02:40:06.632Z,17.83
2016-10-31T02:41:17.314Z,17.85
2016-10-31T02:42:29.926Z,17.82
2016-10-31T02:43:41.264Z,17.79
2016-10-31T02:44:51.178Z,17.78
2016-10-31T02:46:03.123Z,17.63
2016-10-31T02:47:14.753Z,17.46
2016-10-31T02:48:26.743Z,17.46
2016-10-31T02:49:37.247Z,17.42
2016-10-31T02:50:48.156Z,17.44
2016-10-31T02:51:58.611Z,17.48
2016-10-31T02:53:09.978Z,17.46
2016-10-31T02:54:22.794Z,17.45
2016-10-31T02:55:34.718Z,17.48
2016-10-31T02:56:45.164Z,17.49
2016-10-31T02:57:56.118Z,17.51
2016-10-31T02:59:08.794Z,17.45
2016-10-31T03:00:21.651Z,17.6
2016-10-31T03:01:34.898Z,17.44
2016-10-31T03:02:46.588Z,17.48
2016-10-31T03:03:58.631Z,17.45
2016-10-31T03:05:10.458Z,17.45
2016-10-31T03:06:21.162Z,17.46
2016-10-31T03:07:33.619Z,17.45
2016-10-31T03:08:46.795Z,17.49
2016-10-31T03:09:58.176Z,17.56
2016-10-31T03:11:09.987Z,17.52
2016-10-31T03:12:20.523Z,17.49
2016-10-31T03:13:31.873Z,17.36
2016-10-31T03:14:42.867Z,17.12
2016-10-31T03:15:54.177Z,17.11
2016-10-31T03:17:04.962Z,17.04
2016-10-31T03:18:16.891Z,17.14
2016-10-31T03:19:28.523Z,17.12
2016-10-31T03:20:39.723Z,17.22
2016-10-31T03:21:50.773Z,17.3
2016-10-31T03:23:02.958Z,17.29
2016-10-31T03:24:14.721Z,17.2
2016-10-31T03:25:26.616Z,17.12
2016-10-31T03:26:38.169Z,17.12
2016-10-31T03:27:49.008Z,17.12
2016-10-31T03:29:00.418Z,17.15
2016-10-31T03:30:11.593Z,17.09
2016-10-31T03:31:24.303Z,17.15
2016-10-31T03:32:35.966Z,17.22
2016-10-31T03:33:48.638Z,17.23
2016-10-31T03:35:00.867Z,17.29
2016-10-31T03:36:12.951Z,17.12
2016-10-31T03:37:25.143Z,17.02
2016-10-31T03:38:37.140Z,17.02
2016-10-31T03:39:48.552Z,17.06
2016-10-31T03:40:59.643Z,17.08
2016-10-31T03:42:12.412Z,17.16
2016-10-31T03:43:24.609Z,17.2
2016-10-31T03:44:35.713Z,17.3
2016-10-31T03:45:47.876Z,17.22
2016-10-31T03:47:01.064Z,17.3
2016-10-31T03:48:13.428Z,17.31
2016-10-31T03:49:24.768Z,17.44
2016-10-31T03:50:35.971Z,17.27
2016-10-31T03:51:46.589Z,17.31
2016-10-31T03:52:57.296Z,17.22
2016-10-31T03:54:09.308Z,17.3
2016-10-31T03:55:21.975Z,17.2
2016-10-31T03:56:34.166Z,17.22
2016-10-31T03:57:46.878Z,17.11
2016-10-31T03:58:58.626Z,17.15
2016-10-31T04:00:08.942Z,17.11
2016-10-31T04:01:20.435Z,17.15
2016-10-31T04:02:31.709Z,17.22
2016-10-31T04:03:43.924Z,17.16
2016-10-31T04:04:54.973Z,17.04
2016-10-31T04:06:06.399Z,17.19
2016-10-31T04:07:19.026Z,17.16
2016-10-31T04:08:30.988Z,17.23
2016-10-31T04:09:41.730Z,17.19
2016-10-31T04:10:53.883Z,17.2
2016-10-31T04:12:05.762Z,17.14
2016-10-31T04:13:16.907Z,17.19
2016-10-31T04:14:29.125Z,17.22
2016-10-31T04:15:41.064Z,17.31
2016-10-31T04:16:51.604Z,17.08
2016-10-31T04:18:03.125Z,17.09
2016-10-31T04:19:16.376Z,17.11
2016-10-31T04:20:27.895Z,17.06
2016-10-31T04:21:38.615Z,17.16
2016-10-31T04:22:50.083Z,17.23
2016-10-31T04:24:01.740Z,17.2
2016-10-31T04:25:12.305Z,17.24
2016-10-31T04:26:23.746Z,17.22
2016-10-31T04:27:35.276Z,17.11
2016-10-31T04:28:46.105Z,17.22
2016-10-31T04:29:58.237Z,17.06
2016-10-31T04:31:09.728Z,17.08
2016-10-31T04:32:21.446Z,17.06
2016-10-31T04:33:33.437Z,17.11
2016-10-31T04:34:46.052Z,17.01
2016-10-31T04:35:56.684Z,16.93
2016-10-31T04:37:08.783Z,16.99
2016-10-31T04:38:21.054Z,16.96
2016-10-31T04:39:31.769Z,16.96
2016-10-31T04:40:43.974Z,16.91
2016-10-31T04:41:55.335Z,16.97
2016-10-31T04:43:06.679Z,16.93
2016-10-31T04:44:18.792Z,16.81
2016-10-31T04:45:30.373Z,16.74
2016-10-31T04:46:41.146Z,16.75
2016-10-31T04:47:52.899Z,16.79
2016-10-31T04:49:03.702Z,16.74
2016-10-31T04:50:15.055Z,16.74
2016-10-31T04:51:25.610Z,16.71
2016-10-31T04:52:36.902Z,16.74
2016-10-31T04:53:47.747Z,16.75
2016-10-31T04:54:59.714Z,16.89
2016-10-31T04:56:10.592Z,16.84
2016-10-31T04:57:22.141Z,16.99
2016-10-31T04:58:32.556Z,16.9
2016-10-31T04:59:44.084Z,16.99
2016-10-31T05:00:56.135Z,16.86
2016-10-31T05:02:07.491Z,16.84
2016-10-31T05:03:19.175Z,16.97
2016-10-31T05:04:31.044Z,16.9
2016-10-31T05:05:43.196Z,16.89
2016-10-31T05:06:55.013Z,17.01
2016-10-31T05:08:06.589Z,16.94
2016-10-31T05:09:17.711Z,17.02
2016-10-31T05:10:30.039Z,17.02
2016-10-31T05:11:40.056Z,16.86
2016-10-31T05:12:51.050Z,16.91
2016-10-31T05:14:02.659Z,16.94
2016-10-31T05:15:14.709Z,16.91
2016-10-31T05:16:26.290Z,16.89
2016-10-31T05:17:38.491Z,16.79
2016-10-31T05:18:50.133Z,16.84
2016-10-31T05:20:01.850Z,16.72
2016-10-31T05:21:15.169Z,16.86
2016-10-31T05:22:27.811Z,17.01
2016-10-31T05:23:39.517Z,17.02
2016-10-31T05:24:50.347Z,17.01
2016-10-31T05:26:02.547Z,16.89
2016-10-31T05:27:14.700Z,16.84
2016-10-31T05:28:24.342Z,16.72
2016-10-31T05:29:36.381Z,16.65
2016-10-31T05:30:47.880Z,16.72
2016-10-31T05:31:59.474Z,16.72
2016-10-31T05:33:12.144Z,16.81
2016-10-31T05:34:25.360Z,16.75
2016-10-31T05:35:37.390Z,16.65
2016-10-31T05:36:49.951Z,16.66
2016-10-31T05:38:01.435Z,16.65
2016-10-31T05:39:12.814Z,16.68
2016-10-31T05:40:24.184Z,16.64
2016-10-31T05:41:35.420Z,16.61
2016-10-31T05:42:46.604Z,16.58
2016-10-31T05:43:58.957Z,16.66
2016-10-31T05:45:11.127Z,16.71
2016-10-31T05:46:21.850Z,16.71
2016-10-31T05:47:33.662Z,16.74
2016-10-31T05:48:45.001Z,16.74
2016-10-31T05:49:55.565Z,16.79
2016-10-31T05:51:08.303Z,16.66
2016-10-31T05:52:19.062Z,16.65
2016-10-31T05:53:31.285Z,16.51
2016-10-31T05:54:42.829Z,16.5
2016-10-31T05:55:55.038Z,16.51
2016-10-31T05:57:06.951Z,16.64
2016-10-31T05:58:19.226Z,16.57
2016-10-31T05:59:31.365Z,16.6
2016-10-31T06:00:43.727Z,16.53
2016-10-31T06:01:56.484Z,16.53
2016-10-31T06:03:07.201Z,16.56
2016-10-31T06:04:19.124Z,16.65
2016-10-31T06:05:30.627Z,16.61
2016-10-31T06:06:42.172Z,16.58
2016-10-31T06:07:53.029Z,16.68
2016-10-31T06:09:05.506Z,16.66
2016-10-31T06:10:17.580Z,16.65
2016-10-31T06:11:30.805Z,16.64
2016-10-31T06:12:41.993Z,16.51
2016-10-31T06:13:54.029Z,16.57
2016-10-31T06:15:07.276Z,16.64
2016-10-31T06:16:18.604Z,16.58
2016-10-31T06:17:30.342Z,16.6
2016-10-31T06:18:41.099Z,16.61
2016-10-31T06:19:51.855Z,16.6
2016-10-31T06:21:03.324Z,16.61
2016-10-31T06:22:15.064Z,16.65
2016-10-31T06:23:27.662Z,16.71
2016-10-31T06:24:40.091Z,16.76
2016-10-31T06:25:52.608Z,16.71
2016-10-31T06:27:05.211Z,16.72
2016-10-31T06:28:18.071Z,16.86
2016-10-31T06:29:29.957Z,16.75
2016-10-31T06:30:41.407Z,16.84
2016-10-31T06:31:53.587Z,16.87
2016-10-31T06:33:05.592Z,16.86
2016-10-31T06:34:18.241Z,16.9
2016-10-31T06:35:29.518Z,16.9
2016-10-31T06:36:41.879Z,16.83
2016-10-31T06:37:53.592Z,16.84
2016-10-31T06:39:05.219Z,16.87
2016-10-31T06:40:17.514Z,16.89
2016-10-31T06:41:28.541Z,16.97
2016-10-31T06:42:40.460Z,17.06
2016-10-31T06:43:53.284Z,16.99
2016-10-31T06:45:05.489Z,17.01
2016-10-31T06:46:18.089Z,17.02
2016-10-31T06:47:30.057Z,17.08
2016-10-31T06:48:41.564Z,17.05
2016-10-31T06:49:53.751Z,17.06
2016-10-31T06:51:06.478Z,17.05
2016-10-31T06:52:18.815Z,17.12
2016-10-31T06:53:31.478Z,17.02
2016-10-31T06:54:43.258Z,17.09
2016-10-31T06:55:55.993Z,17.04
2016-10-31T06:57:07.181Z,17.11
2016-10-31T06:58:17.794Z,17.08
2016-10-31T06:59:30.366Z,17.06
2016-10-31T07:00:43.057Z,17.11
2016-10-31T07:01:55.088Z,17.15
2016-10-31T07:03:06.991Z,17.23
2016-10-31T07:04:20.131Z,17.3
2016-10-31T07:05:32.689Z,17.38
2016-10-31T07:06:44.548Z,17.33
2016-10-31T07:07:56.321Z,17.46
2016-10-31T07:09:08.919Z,17.45
2016-10-31T07:10:19.699Z,17.54
2016-10-31T07:11:31.072Z,17.59
2016-10-31T07:12:43.364Z,17.56
2016-10-31T07:13:55.438Z,17.59
2016-10-31T07:15:07.722Z,17.6
2016-10-31T07:16:19.453Z,17.45
2016-10-31T07:17:32.239Z,17.59
2016-10-31T07:18:43.632Z,17.59
2016-10-31T07:19:55.020Z,17.67
2016-10-31T07:21:07.614Z,17.79
2016-10-31T07:22:19.927Z,17.74
2016-10-31T07:23:33.218Z,17.76
2016-10-31T07:24:45.918Z,17.74
2016-10-31T07:25:57.277Z,17.72
2016-10-31T07:27:08.769Z,17.63
2016-10-31T07:28:20.321Z,17.74
2016-10-31T07:29:32.866Z,17.71
2016-10-31T07:30:44.814Z,17.83
2016-10-31T07:31:55.814Z,17.92
2016-10-31T07:33:08.107Z,17.82
2016-10-31T07:34:20.232Z,17.97
2016-10-31T07:35:32.756Z,17.97
2016-10-31T07:36:44.352Z,17.92
2016-10-31T07:37:55.560Z,17.97
2016-10-31T07:39:07.510Z,18.04
2016-10-31T07:40:19.760Z,17.94
2016-10-31T07:41:30.897Z,17.92
2016-10-31T07:42:43.187Z,17.97
2016-10-31T07:43:54.512Z,17.9
2016-10-31T07:45:05.739Z,18.1
2016-10-31T07:46:18.447Z,18.15
2016-10-31T07:47:30.521Z,18.11
2016-10-31T07:48:42.863Z,18.22
2016-10-31T07:49:55.682Z,18.08
2016-10-31T07:51:07.872Z,18.19
2016-10-31T07:52:19.688Z,18.22
2016-10-31T07:53:31.575Z,18.29
2016-10-31T07:54:43.208Z,18.4
2016-10-31T07:55:54.951Z,18.34
2016-10-31T07:57:07.581Z,18.31
2016-10-31T07:58:20.188Z,18.45
2016-10-31T07:59:31.808Z,18.44
2016-10-31T08:00:44.178Z,18.58
2016-10-31T08:01:55.790Z,18.66
2016-10-31T08:03:06.334Z,18.63
2016-10-31T08:04:18.482Z,18.65
2016-10-31T08:05:30.411Z,18.7
2016-10-31T08:06:43.682Z,18.68
2016-10-31T08:07:56.495Z,18.62
2016-10-31T08:09:09.306Z,18.74
2016-10-31T08:10:21.482Z,18.75
2016-10-31T08:11:33.710Z,18.78
2016-10-31T08:12:43.590Z,18.95
2016-10-31T08:13:55.744Z,19
2016-10-31T08:15:07.181Z,19.04
2016-10-31T08:16:19.282Z,19.21
2016-10-31T08:17:31.542Z,19.44
2016-10-31T08:18:44.691Z,19.54
2016-10-31T08:19:54.859Z,19.44
2016-10-31T08:21:07.139Z,19.48
2016-10-31T08:22:19.999Z,19.51
2016-10-31T08:23:31.745Z,19.69
2016-10-31T08:24:44.032Z,19.7
2016-10-31T08:25:56.059Z,19.48
2016-10-31T08:27:06.963Z,19.45
2016-10-31T08:28:19.199Z,19.49
2016-10-31T08:29:30.851Z,19.55
2016-10-31T08:30:42.044Z,19.52
2016-10-31T08:31:52.611Z,19.48
2016-10-31T08:33:04.394Z,19.49
2016-10-31T08:34:15.606Z,19.66
2016-10-31T08:35:28.060Z,19.77
2016-10-31T08:36:39.329Z,19.73
2016-10-31T08:37:50.725Z,19.79
2016-10-31T08:39:03.597Z,20.02
2016-10-31T08:40:16.331Z,20
2016-10-31T08:41:28.404Z,20.19
2016-10-31T08:42:39.866Z,20.19
2016-10-31T08:43:51.406Z,20.21
2016-10-31T08:45:03.285Z,20.22
2016-10-31T08:46:15.194Z,20.39
2016-10-31T08:47:25.743Z,20.06
2016-10-31T08:48:37.672Z,20.39
2016-10-31T08:49:47.657Z,20.5
2016-10-31T08:51:00.721Z,20.26
2016-10-31T08:52:11.124Z,20.4
2016-10-31T08:53:24.384Z,20.1
2016-10-31T08:54:35.391Z,20.19
2016-10-31T08:55:47.475Z,20.03
2016-10-31T08:56:59.181Z,20.03
2016-10-31T08:58:11.478Z,20.19
2016-10-31T08:59:24.115Z,20.31
2016-10-31T09:00:34.817Z,20.32
2016-10-31T09:01:46.247Z,20.39
2016-10-31T09:02:58.143Z,20.4
2016-10-31T09:04:08.706Z,20.06
2016-10-31T09:05:20.869Z,20.04
2016-10-31T09:06:33.172Z,19.99
2016-10-31T09:07:44.408Z,20.1
2016-10-31T09:08:56.324Z,20.26
2016-10-31T09:10:08.483Z,19.99
2016-10-31T09:11:20.351Z,19.77
2016-10-31T09:12:31.403Z,20.1
2016-10-31T09:13:42.393Z,20.19
2016-10-31T09:14:53.551Z,19.86
2016-10-31T09:16:05.536Z,19.96
2016-10-31T09:17:18.125Z,20.14
2016-10-31T09:18:30.121Z,20.18
2016-10-31T09:19:42.713Z,20
2016-10-31T09:20:54.446Z,19.55
2016-10-31T09:22:05.850Z,19.95
2016-10-31T09:23:15.794Z,20.1
2016-10-31T09:24:27.221Z,20.22
2016-10-31T09:25:38.909Z,20.1
2016-10-31T09:26:52.194Z,20.09
2016-10-31T09:28:02.900Z,20.44
2016-10-31T09:29:15.672Z,20.18
2016-10-31T09:30:27.691Z,20.22
2016-10-31T09:31:40.351Z,20.37
2016-10-31T09:32:51.587Z,20.21
2016-10-31T09:34:03.201Z,20.19
2016-10-31T09:35:14.413Z,20.07
2016-10-31T09:36:26.356Z,20.25
2016-10-31T09:37:38.840Z,20.34
2016-10-31T09:38:49.244Z,20.28
2016-10-31T09:40:02.001Z,20.22
2016-10-31T09:41:14.870Z,20.13
2016-10-31T09:42:25.574Z,20.03
2016-10-31T09:43:36.296Z,20.02
2016-10-31T09:44:47.905Z,20.19
2016-10-31T09:45:59.795Z,20.19
2016-10-31T09:47:11.741Z,20.07
2016-10-31T09:48:24.009Z,20.1
2016-10-31T09:49:35.654Z,20.09
2016-10-31T09:50:46.958Z,20.39
2016-10-31T09:51:58.433Z,20.62
2016-10-31T09:53:10.550Z,20.52
2016-10-31T09:54:22.306Z,20.51
2016-10-31T09:55:33.483Z,20.52
2016-10-31T09:56:46.671Z,20.63
2016-10-31T09:57:58.453Z,20.43
2016-10-31T09:59:10.659Z,20.67
2016-10-31T10:00:21.752Z,20.43
2016-10-31T10:01:33.757Z,20.67
2016-10-31T10:02:45.417Z,20.6
2016-10-31T10:03:56.178Z,20.58
2016-10-31T10:05:07.650Z,20.4
2016-10-31T10:06:19.444Z,20.48
2016-10-31T10:07:31.460Z,20.4
2016-10-31T10:08:43.342Z,20.67
2016-10-31T10:09:55.654Z,20.8
2016-10-31T10:11:07.462Z,20.78
2016-10-31T10:12:20.241Z,20.7
2016-10-31T10:13:32.056Z,20.9
2016-10-31T10:14:43.736Z,20.65
2016-10-31T10:15:56.436Z,20.82
2016-10-31T10:17:07.639Z,20.69
2016-10-31T10:18:20.024Z,20.9
2016-10-31T10:19:30.698Z,21.39
2016-10-31T10:20:40.934Z,21.6
2016-10-31T10:21:51.860Z,20.93
2016-10-31T10:23:05.161Z,20.92
2016-10-31T10:24:16.595Z,21.07
2016-10-31T10:25:27.806Z,21.37
2016-10-31T10:26:39.985Z,21.66
2016-10-31T10:27:51.543Z,21.25
2016-10-31T10:29:04.269Z,21.25
2016-10-31T10:30:14.457Z,21.51
2016-10-31T10:31:26.654Z,21.57
2016-10-31T10:32:38.723Z,21.48
2016-10-31T10:33:50.526Z,21.22
2016-10-31T10:35:01.719Z,21.14
2016-10-31T10:36:12.940Z,21.46
2016-10-31T10:37:25.117Z,21.89
2016-10-31T10:38:37.243Z,22.23
2016-10-31T10:39:49.298Z,22.14
2016-10-31T10:41:00.195Z,22.33
2016-10-31T10:42:12.356Z,22.45
2016-10-31T10:43:24.687Z,22.13
2016-10-31T10:44:36.123Z,22.41
2016-10-31T10:45:47.807Z,22.28
2016-10-31T10:46:59.437Z,21.91
2016-10-31T10:48:11.585Z,22.29
2016-10-31T10:49:23.456Z,22.23
2016-10-31T10:50:36.040Z,21.83
2016-10-31T10:51:49.281Z,21.99
2016-10-31T10:53:01.786Z,22.11
2016-10-31T10:54:14.354Z,22.32
2016-10-31T10:55:27.232Z,22.2
2016-10-31T10:56:38.385Z,22.35
2016-10-31T10:57:50.390Z,22.26
2016-10-31T10:59:03.056Z,22.43
2016-10-31T11:00:14.387Z,21.89
2016-10-31T11:01:26.841Z,22.3
2016-10-31T11:02:39.560Z,22.2
2016-10-31T11:03:51.435Z,22.26
2016-10-31T11:05:02.029Z,21.88
2016-10-31T11:06:14.411Z,22.06
2016-10-31T11:07:26.385Z,21.8
2016-10-31T11:08:38.041Z,22.07
2016-10-31T11:09:49.184Z,22.25
2016-10-31T11:11:01.345Z,22.33
2016-10-31T11:12:13.999Z,22.54
2016-10-31T11:13:26.707Z,22.26
2016-10-31T11:14:38.663Z,21.91
2016-10-31T11:15:49.725Z,22.29
2016-10-31T11:17:00.731Z,22.44
2016-10-31T11:18:12.039Z,22.07
2016-10-31T11:19:24.173Z,22.3
2016-10-31T11:20:34.712Z,22.36
2016-10-31T11:21:46.460Z,22.83
2016-10-31T11:22:56.418Z,23.17
2016-10-31T11:24:07.239Z,23.28
2016-10-31T11:25:19.424Z,23.47
2016-10-31T11:26:32.051Z,23.25
2016-10-31T11:27:44.731Z,23.24
2016-10-31T11:28:56.967Z,23.51
2016-10-31T11:30:08.319Z,23.27
2016-10-31T11:31:21.546Z,23.23
2016-10-31T11:32:33.489Z,23.27
2016-10-31T11:33:45.391Z,23.73
2016-10-31T11:34:57.917Z,23.78
2016-10-31T11:36:09.675Z,23.05
2016-10-31T11:37:20.928Z,22.83
2016-10-31T11:38:34.275Z,22.65
2016-10-31T11:39:45.639Z,22.78
2016-10-31T11:40:56.944Z,22.54
2016-10-31T11:42:08.676Z,22.5
2016-10-31T11:43:20.116Z,22.7
2016-10-31T11:44:32.762Z,22.81
2016-10-31T11:45:44.538Z,22.69
2016-10-31T11:46:56.292Z,22.59
2016-10-31T11:48:08.431Z,22.41
2016-10-31T11:49:20.086Z,22.41
2016-10-31T11:50:31.997Z,22.2
2016-10-31T11:51:44.228Z,22.1
2016-10-31T11:52:56.310Z,22.22
2016-10-31T11:54:08.631Z,22.53
2016-10-31T11:55:20.895Z,22.84
2016-10-31T11:56:32.724Z,22.75
2016-10-31T11:57:45.276Z,23.02
2016-10-31T11:58:58.099Z,22.85
2016-10-31T12:00:09.366Z,22.65
2016-10-31T12:01:21.646Z,23.03
2016-10-31T12:02:34.173Z,22.6
2016-10-31T12:03:45.739Z,22.44
2016-10-31T12:04:58.502Z,22.87
2016-10-31T12:06:09.699Z,23.17
2016-10-31T12:07:21.548Z,23.66
2016-10-31T12:08:33.381Z,23.63
2016-10-31T12:09:45.355Z,23.23
2016-10-31T12:10:57.090Z,22.85
2016-10-31T12:12:09.547Z,23.15
2016-10-31T12:13:20.987Z,23.34
2016-10-31T12:14:32.247Z,22.93
2016-10-31T12:15:43.442Z,22.93
2016-10-31T12:16:55.359Z,22.57
2016-10-31T12:18:05.341Z,22.32
2016-10-31T12:19:16.335Z,21.8
2016-10-31T12:20:27.638Z,21.66
2016-10-31T12:21:39.329Z,21.61
2016-10-31T12:22:49.938Z,21.89
2016-10-31T12:24:01.914Z,22.02
2016-10-31T12:25:14.214Z,22
2016-10-31T12:26:26.144Z,21.83
2016-10-31T12:27:38.341Z,21.7
2016-10-31T12:28:50.575Z,21.77
2016-10-31T12:30:01.914Z,21.79
2016-10-31T12:31:13.817Z,21.89
2016-10-31T12:32:24.727Z,21.7
2016-10-31T12:33:36.103Z,21.7
2016-10-31T12:34:46.723Z,21.79
2016-10-31T12:35:56.416Z,21.73
2016-10-31T12:37:08.808Z,21.91
2016-10-31T12:38:22.080Z,21.93
2016-10-31T12:39:35.357Z,22.06
2016-10-31T12:40:47.020Z,21.96
2016-10-31T12:41:57.257Z,21.89
2016-10-31T12:43:09.918Z,21.8
2016-10-31T12:44:22.126Z,22.08
2016-10-31T12:45:32.425Z,22.51
2016-10-31T12:46:44.994Z,22.75
2016-10-31T12:47:57.665Z,22.68
2016-10-31T12:49:09.662Z,22.88
2016-10-31T12:50:21.584Z,22.53
2016-10-31T12:51:33.407Z,22.38
2016-10-31T12:52:44.417Z,22.26
2016-10-31T12:53:56.772Z,22.3
2016-10-31T12:55:09.139Z,22.25
2016-10-31T12:56:21.579Z,22.15
2016-10-31T12:57:32.462Z,22.17
2016-10-31T12:58:44.959Z,22.28
2016-10-31T12:59:56.404Z,22.3
2016-10-31T13:01:07.117Z,22.02
2016-10-31T13:02:19.238Z,21.5
2016-10-31T13:03:30.504Z,21.32
2016-10-31T13:04:41.858Z,21.12
2016-10-31T13:05:53.437Z,21.09
2016-10-31T13:07:05.250Z,21.35
2016-10-31T13:08:17.434Z,21.35
2016-10-31T13:09:29.477Z,21.24
2016-10-31T13:10:42.692Z,21.11
2016-10-31T13:11:55.271Z,21.11
2016-10-31T13:13:06.984Z,21.06
2016-10-31T13:14:17.960Z,21.11
2016-10-31T13:15:30.824Z,21.2
2016-10-31T13:16:42.942Z,21.05
2016-10-31T13:17:55.211Z,21.03
2016-10-31T13:19:06.930Z,21.07
2016-10-31T13:20:18.739Z,21.14
2016-10-31T13:21:29.524Z,21.09
2016-10-31T13:22:41.623Z,21.03
2016-10-31T13:23:52.966Z,21
2016-10-31T13:25:05.432Z,21.11
2016-10-31T13:26:15.729Z,21.29
2016-10-31T13:27:28.441Z,21.35
2016-10-31T13:28:38.825Z,21.27
2016-10-31T13:29:51.148Z,21.25
2016-10-31T13:31:00.863Z,21.11
2016-10-31T13:32:13.714Z,21.03
2016-10-31T13:33:25.106Z,21.14
2016-10-31T13:34:36.966Z,21.03
2016-10-31T13:35:48.348Z,20.92
2016-10-31T13:37:01.208Z,21
2016-10-31T13:38:14.606Z,21.06
2016-10-31T13:39:25.953Z,21.11
2016-10-31T13:40:38.420Z,21.09
2016-10-31T13:41:51.090Z,20.99
2016-10-31T13:43:01.604Z,21.05
2016-10-31T13:44:12.865Z,21.03
2016-10-31T13:45:24.505Z,20.93
2016-10-31T13:46:35.739Z,20.74
2016-10-31T13:47:47.524Z,20.75
2016-10-31T13:48:59.537Z,20.74
2016-10-31T13:50:12.285Z,20.69
2016-10-31T13:51:23.804Z,20.77
2016-10-31T13:52:35.699Z,20.84
2016-10-31T13:53:47.145Z,20.78
2016-10-31T13:54:58.785Z,20.82
2016-10-31T13:56:10.323Z,20.92
2016-10-31T13:57:21.869Z,20.84
2016-10-31T13:58:34.745Z,20.62
2016-10-31T13:59:46.987Z,20.62
2016-10-31T14:00:58.265Z,20.74
2016-10-31T14:02:09.880Z,20.8
2016-10-31T14:03:22.637Z,20.63
2016-10-31T14:04:34.696Z,20.58
2016-10-31T14:05:46.766Z,20.65
2016-10-31T14:06:58.909Z,20.65
2016-10-31T14:08:10.049Z,20.67
2016-10-31T14:09:21.389Z,20.78
2016-10-31T14:10:33.446Z,20.59
2016-10-31T14:11:46.604Z,20.66
2016-10-31T14:12:59.849Z,20.77
2016-10-31T14:14:11.992Z,20.7
2016-10-31T14:15:22.595Z,20.66
2016-10-31T14:16:34.439Z,20.63
2016-10-31T14:17:45.207Z,20.69
2016-10-31T14:18:57.598Z,20.66
2016-10-31T14:20:08.636Z,20.66
2016-10-31T14:21:20.804Z,20.67
2016-10-31T14:22:31.228Z,20.75
2016-10-31T14:23:41.672Z,20.78
2016-10-31T14:24:52.418Z,20.58
2016-10-31T14:26:03.655Z,20.59
2016-10-31T14:27:15.731Z,20.63
2016-10-31T14:28:26.319Z,20.59
2016-10-31T14:29:37.508Z,20.69
2016-10-31T14:30:48.967Z,20.63
2016-10-31T14:32:00.657Z,20.58
2016-10-31T14:33:13.875Z,20.62
2016-10-31T14:34:24.645Z,20.56
2016-10-31T14:35:35.348Z,20.67
2016-10-31T14:36:48.178Z,20.55
2016-10-31T14:38:00.205Z,20.65
2016-10-31T14:39:11.948Z,20.58
2016-10-31T14:40:23.307Z,20.55
2016-10-31T14:41:35.918Z,20.51
2016-10-31T14:42:47.121Z,20.59
2016-10-31T14:43:59.008Z,20.65
2016-10-31T14:45:10.930Z,20.55
2016-10-31T14:46:22.483Z,20.6
2016-10-31T14:47:34.330Z,20.63
2016-10-31T14:48:46.491Z,20.55
2016-10-31T14:49:57.996Z,20.51
2016-10-31T14:51:09.844Z,20.58
2016-10-31T14:52:22.390Z,20.5
2016-10-31T14:53:34.647Z,20.43
2016-10-31T14:54:46.426Z,20.51
2016-10-31T14:55:59.149Z,20.55
2016-10-31T14:57:11.294Z,20.48
2016-10-31T14:58:23.231Z,20.47
2016-10-31T14:59:34.862Z,20.44
2016-10-31T15:00:47.488Z,20.4
2016-10-31T15:01:57.817Z,20.34
2016-10-31T15:03:09.326Z,20.36
2016-10-31T15:04:21.557Z,20.41
2016-10-31T15:05:32.915Z,20.41
2016-10-31T15:06:43.963Z,20.5
2016-10-31T15:07:55.801Z,20.52
2016-10-31T15:09:08.362Z,20.6
2016-10-31T15:10:20.706Z,20.48
2016-10-31T15:11:33.339Z,20.56
2016-10-31T15:12:45.305Z,20.48
2016-10-31T15:13:57.559Z,20.51
2016-10-31T15:15:08.505Z,20.43
2016-10-31T15:16:19.938Z,20.36
2016-10-31T15:17:31.150Z,20.4
2016-10-31T15:18:42.347Z,20.37
2016-10-31T15:19:53.687Z,20.4
2016-10-31T15:21:05.653Z,20.4
2016-10-31T15:22:17.214Z,20.4
2016-10-31T15:23:29.520Z,20.26
2016-10-31T15:24:40.595Z,20.28
2016-10-31T15:25:53.032Z,20.43
2016-10-31T15:27:04.261Z,20.31
2016-10-31T15:28:15.114Z,20.19